Bluffton, Texas
Current Conditions -  °F | °C
As of 11:50 AM on Friday 31 Oct 2014 (Local Time) from KAQO Reporting Station
Clear Clear  
Wind Chill: 70°   Ceiling: Unl
Heat Index: 70°   Visibility: 10mi
Dew Point: 39°   Wind: 13mph
Humidity: 33%   Direction: 50°NE
Pressure: 30.37"   Gusts: 17mph
Location:  30.82°N, 98.49°W
Report Text: KAQO 311650Z AUTO 05011G15KT 10SM CLR 21/04 A3037 RMK AO2
Loading
Personal Weather Stations






























Interactive Weather Map
Tropical Storm Tracking
New forecast layout! Learn more

10-Day Weather Forecast

Advertisements
Track Severe Weather on mobile